sensor_id;sensor_type;location;lat;lon;timestamp;P1;durP1;ratioP1;P2;durP2;ratioP2
23270;SDS011;11804;51.118;17.058;2023-02-16T00:00:26;108.60;;;48.50;;
23270;SDS011;11804;51.118;17.058;2023-02-16T00:02:54;106.73;;;48.00;;
23270;SDS011;11804;51.118;17.058;2023-02-16T00:05:24;105.63;;;48.17;;
23270;SDS011;11804;51.118;17.058;2023-02-16T00:07:55;106.70;;;50.07;;
23270;SDS011;11804;51.118;17.058;2023-02-16T00:10:25;109.87;;;48.13;;
23270;SDS011;11804;51.118;17.058;2023-02-16T00:12:54;107.47;;;47.30;;
23270;SDS011;11804;51.118;17.058;2023-02-16T00:15:40;114.13;;;52.50;;
23270;SDS011;11804;51.118;17.058;2023-02-16T00:18:18;106.13;;;48.73;;
23270;SDS011;11804;51.118;17.058;2023-02-16T00:20:48;108.67;;;50.47;;
23270;SDS011;11804;51.118;17.058;2023-02-16T00:23:15;110.23;;;52.00;;
23270;SDS011;11804;51.118;17.058;2023-02-16T00:25:43;124.20;;;55.63;;
23270;SDS011;11804;51.118;17.058;2023-02-16T00:28:15;116.80;;;51.90;;
23270;SDS011;11804;51.118;17.058;2023-02-16T00:30:45;126.17;;;52.87;;
23270;SDS011;11804;51.118;17.058;2023-02-16T00:33:15;109.10;;;49.80;;
23270;SDS011;11804;51.118;17.058;2023-02-16T00:35:45;120.33;;;52.07;;
23270;SDS011;11804;51.118;17.058;2023-02-16T00:38:13;117.73;;;51.70;;
23270;SDS011;11804;51.118;17.058;2023-02-16T00:40:40;129.23;;;50.87;;
23270;SDS011;11804;51.118;17.058;2023-02-16T00:43:12;117.27;;;49.17;;
23270;SDS011;11804;51.118;17.058;2023-02-16T00:45:39;112.80;;;48.97;;
23270;SDS011;11804;51.118;17.058;2023-02-16T00:48:07;110.50;;;48.90;;
23270;SDS011;11804;51.118;17.058;2023-02-16T00:50:36;111.87;;;50.13;;
23270;SDS011;11804;51.118;17.058;2023-02-16T00:53:03;110.83;;;49.93;;
23270;SDS011;11804;51.118;17.058;2023-02-16T00:55:32;122.80;;;53.50;;
23270;SDS011;11804;51.118;17.058;2023-02-16T01:00:51;112.73;;;49.53;;
23270;SDS011;11804;51.118;17.058;2023-02-16T01:03:25;115.63;;;49.80;;
23270;SDS011;11804;51.118;17.058;2023-02-16T01:05:54;111.80;;;49.07;;
23270;SDS011;11804;51.118;17.058;2023-02-16T01:08:40;110.37;;;48.30;;
23270;SDS011;11804;51.118;17.058;2023-02-16T01:11:28;113.27;;;49.60;;
23270;SDS011;11804;51.118;17.058;2023-02-16T01:13:56;114.83;;;49.60;;
23270;SDS011;11804;51.118;17.058;2023-02-16T01:16:25;113.03;;;50.17;;
23270;SDS011;11804;51.118;17.058;2023-02-16T01:18:54;115.40;;;49.03;;
23270;SDS011;11804;51.118;17.058;2023-02-16T01:21:22;107.93;;;48.80;;
23270;SDS011;11804;51.118;17.058;2023-02-16T01:23:49;117.23;;;50.27;;
23270;SDS011;11804;51.118;17.058;2023-02-16T01:26:17;107.73;;;49.70;;
23270;SDS011;11804;51.118;17.058;2023-02-16T01:28:46;116.73;;;48.13;;
23270;SDS011;11804;51.118;17.058;2023-02-16T01:31:14;112.23;;;50.07;;
23270;SDS011;11804;51.118;17.058;2023-02-16T01:33:43;109.17;;;49.10;;
23270;SDS011;11804;51.118;17.058;2023-02-16T01:39:05;105.57;;;47.70;;
23270;SDS011;11804;51.118;17.058;2023-02-16T01:44:28;115.80;;;49.33;;
23270;SDS011;11804;51.118;17.058;2023-02-16T01:46:58;113.23;;;51.10;;
23270;SDS011;11804;51.118;17.058;2023-02-16T01:49:26;121.47;;;49.13;;
23270;SDS011;11804;51.118;17.058;2023-02-16T01:52:02;108.10;;;48.53;;
23270;SDS011;11804;51.118;17.058;2023-02-16T01:57:27;106.20;;;46.63;;
23270;SDS011;11804;51.118;17.058;2023-02-16T02:00:07;119.77;;;47.73;;
23270;SDS011;11804;51.118;17.058;2023-02-16T02:02:35;121.53;;;49.80;;
23270;SDS011;11804;51.118;17.058;2023-02-16T02:05:22;117.87;;;48.73;;
23270;SDS011;11804;51.118;17.058;2023-02-16T02:13:39;109.20;;;47.77;;
23270;SDS011;11804;51.118;17.058;2023-02-16T02:16:11;118.67;;;48.53;;
23270;SDS011;11804;51.118;17.058;2023-02-16T02:18:42;110.87;;;47.90;;
23270;SDS011;11804;51.118;17.058;2023-02-16T02:24:29;104.23;;;46.63;;
23270;SDS011;11804;51.118;17.058;2023-02-16T02:27:15;120.13;;;49.50;;
23270;SDS011;11804;51.118;17.058;2023-02-16T02:32:40;116.23;;;49.77;;
23270;SDS011;11804;51.118;17.058;2023-02-16T02:41:06;109.93;;;46.83;;
23270;SDS011;11804;51.118;17.058;2023-02-16T02:48:40;105.03;;;45.97;;
23270;SDS011;11804;51.118;17.058;2023-02-16T02:56:55;108.20;;;47.67;;
23270;SDS011;11804;51.118;17.058;2023-02-16T02:59:45;105.97;;;45.97;;
23270;SDS011;11804;51.118;17.058;2023-02-16T03:02:44;102.87;;;45.60;;
23270;SDS011;11804;51.118;17.058;2023-02-16T03:05:14;110.57;;;46.97;;
23270;SDS011;11804;51.118;17.058;2023-02-16T03:07:45;109.23;;;46.57;;
23270;SDS011;11804;51.118;17.058;2023-02-16T03:10:19;97.30;;;46.40;;
23270;SDS011;11804;51.118;17.058;2023-02-16T03:13:09;99.47;;;45.50;;
23270;SDS011;11804;51.118;17.058;2023-02-16T03:15:39;99.83;;;47.03;;
23270;SDS011;11804;51.118;17.058;2023-02-16T03:18:09;108.83;;;45.47;;
23270;SDS011;11804;51.118;17.058;2023-02-16T03:20:56;102.20;;;46.93;;
23270;SDS011;11804;51.118;17.058;2023-02-16T03:23:43;98.93;;;45.37;;
23270;SDS011;11804;51.118;17.058;2023-02-16T03:26:31;107.30;;;45.83;;
23270;SDS011;11804;51.118;17.058;2023-02-16T03:29:18;101.97;;;46.03;;
23270;SDS011;11804;51.118;17.058;2023-02-16T03:31:48;104.80;;;46.57;;
23270;SDS011;11804;51.118;17.058;2023-02-16T03:34:18;104.57;;;46.30;;
23270;SDS011;11804;51.118;17.058;2023-02-16T03:36:48;108.60;;;47.97;;
23270;SDS011;11804;51.118;17.058;2023-02-16T03:39:18;108.33;;;47.77;;
23270;SDS011;11804;51.118;17.058;2023-02-16T03:41:49;108.03;;;48.23;;
23270;SDS011;11804;51.118;17.058;2023-02-16T03:44:18;113.33;;;48.43;;
23270;SDS011;11804;51.118;17.058;2023-02-16T03:46:47;103.70;;;48.00;;
23270;SDS011;11804;51.118;17.058;2023-02-16T03:49:15;106.23;;;48.67;;
23270;SDS011;11804;51.118;17.058;2023-02-16T03:51:43;103.53;;;47.80;;
23270;SDS011;11804;51.118;17.058;2023-02-16T03:54:11;106.07;;;48.63;;
23270;SDS011;11804;51.118;17.058;2023-02-16T03:56:39;114.63;;;48.80;;
23270;SDS011;11804;51.118;17.058;2023-02-16T03:59:07;113.00;;;49.07;;
23270;SDS011;11804;51.118;17.058;2023-02-16T04:01:35;124.77;;;50.47;;
23270;SDS011;11804;51.118;17.058;2023-02-16T04:04:02;109.10;;;48.00;;
23270;SDS011;11804;51.118;17.058;2023-02-16T04:06:30;114.67;;;49.73;;
23270;SDS011;11804;51.118;17.058;2023-02-16T04:08:58;106.23;;;48.07;;
23270;SDS011;11804;51.118;17.058;2023-02-16T04:11:25;108.90;;;48.63;;
23270;SDS011;11804;51.118;17.058;2023-02-16T04:14:11;111.87;;;48.30;;
23270;SDS011;11804;51.118;17.058;2023-02-16T04:16:39;108.40;;;47.40;;
23270;SDS011;11804;51.118;17.058;2023-02-16T04:19:06;104.73;;;47.10;;
23270;SDS011;11804;51.118;17.058;2023-02-16T04:21:34;101.77;;;46.93;;
23270;SDS011;11804;51.118;17.058;2023-02-16T04:24:05;107.63;;;47.63;;
23270;SDS011;11804;51.118;17.058;2023-02-16T04:26:32;100.97;;;46.40;;
23270;SDS011;11804;51.118;17.058;2023-02-16T04:29:00;112.07;;;49.20;;
23270;SDS011;11804;51.118;17.058;2023-02-16T04:31:28;107.23;;;47.57;;
23270;SDS011;11804;51.118;17.058;2023-02-16T04:33:55;110.23;;;47.73;;
23270;SDS011;11804;51.118;17.058;2023-02-16T04:36:23;106.43;;;48.40;;
23270;SDS011;11804;51.118;17.058;2023-02-16T04:38:50;103.63;;;47.57;;
23270;SDS011;11804;51.118;17.058;2023-02-16T04:41:18;105.07;;;46.67;;
23270;SDS011;11804;51.118;17.058;2023-02-16T04:43:45;106.53;;;48.13;;
23270;SDS011;11804;51.118;17.058;2023-02-16T04:46:13;103.87;;;46.97;;
23270;SDS011;11804;51.118;17.058;2023-02-16T04:48:41;108.57;;;48.00;;
23270;SDS011;11804;51.118;17.058;2023-02-16T04:51:08;107.17;;;48.50;;
23270;SDS011;11804;51.118;17.058;2023-02-16T04:53:36;106.03;;;48.50;;
23270;SDS011;11804;51.118;17.058;2023-02-16T04:56:03;108.10;;;47.83;;
23270;SDS011;11804;51.118;17.058;2023-02-16T04:58:34;112.10;;;50.67;;
23270;SDS011;11804;51.118;17.058;2023-02-16T05:01:02;115.60;;;48.60;;
23270;SDS011;11804;51.118;17.058;2023-02-16T05:03:29;117.97;;;50.87;;
23270;SDS011;11804;51.118;17.058;2023-02-16T05:05:57;105.00;;;47.90;;
23270;SDS011;11804;51.118;17.058;2023-02-16T05:08:26;101.30;;;47.70;;
23270;SDS011;11804;51.118;17.058;2023-02-16T05:10:55;102.20;;;46.87;;
23270;SDS011;11804;51.118;17.058;2023-02-16T05:13:40;109.27;;;49.57;;
23270;SDS011;11804;51.118;17.058;2023-02-16T05:16:25;109.43;;;47.70;;
23270;SDS011;11804;51.118;17.058;2023-02-16T05:18:53;115.37;;;49.60;;
23270;SDS011;11804;51.118;17.058;2023-02-16T05:21:21;108.77;;;49.33;;
23270;SDS011;11804;51.118;17.058;2023-02-16T05:23:58;114.30;;;49.13;;
23270;SDS011;11804;51.118;17.058;2023-02-16T05:26:27;118.10;;;48.60;;
23270;SDS011;11804;51.118;17.058;2023-02-16T05:28:55;115.40;;;46.70;;
23270;SDS011;11804;51.118;17.058;2023-02-16T05:31:25;111.03;;;48.87;;
23270;SDS011;11804;51.118;17.058;2023-02-16T05:33:52;104.90;;;48.07;;
23270;SDS011;11804;51.118;17.058;2023-02-16T05:36:21;103.43;;;48.17;;
23270;SDS011;11804;51.118;17.058;2023-02-16T05:38:49;107.47;;;49.10;;
23270;SDS011;11804;51.118;17.058;2023-02-16T05:41:16;100.30;;;47.67;;
23270;SDS011;11804;51.118;17.058;2023-02-16T05:43:53;105.77;;;47.37;;
23270;SDS011;11804;51.118;17.058;2023-02-16T05:46:23;113.07;;;47.30;;
23270;SDS011;11804;51.118;17.058;2023-02-16T05:48:52;124.37;;;50.20;;
23270;SDS011;11804;51.118;17.058;2023-02-16T05:51:20;116.97;;;49.37;;
23270;SDS011;11804;51.118;17.058;2023-02-16T05:53:48;112.80;;;47.43;;
23270;SDS011;11804;51.118;17.058;2023-02-16T05:56:16;118.97;;;48.63;;
23270;SDS011;11804;51.118;17.058;2023-02-16T05:58:44;108.57;;;49.30;;
23270;SDS011;11804;51.118;17.058;2023-02-16T06:01:12;104.90;;;49.17;;
23270;SDS011;11804;51.118;17.058;2023-02-16T06:03:40;108.70;;;48.43;;
23270;SDS011;11804;51.118;17.058;2023-02-16T06:06:08;104.83;;;47.40;;
23270;SDS011;11804;51.118;17.058;2023-02-16T06:08:37;112.17;;;49.17;;
23270;SDS011;11804;51.118;17.058;2023-02-16T06:11:05;110.17;;;48.03;;
23270;SDS011;11804;51.118;17.058;2023-02-16T06:13:35;129.30;;;56.03;;
23270;SDS011;11804;51.118;17.058;2023-02-16T06:16:03;106.57;;;48.27;;
23270;SDS011;11804;51.118;17.058;2023-02-16T06:18:30;103.87;;;48.53;;
23270;SDS011;11804;51.118;17.058;2023-02-16T06:20:58;103.47;;;46.87;;
23270;SDS011;11804;51.118;17.058;2023-02-16T06:23:26;110.80;;;49.07;;
23270;SDS011;11804;51.118;17.058;2023-02-16T06:25:53;109.70;;;48.13;;
23270;SDS011;11804;51.118;17.058;2023-02-16T06:28:24;113.57;;;51.63;;
23270;SDS011;11804;51.118;17.058;2023-02-16T06:30:51;109.53;;;51.20;;
23270;SDS011;11804;51.118;17.058;2023-02-16T06:33:19;118.47;;;52.80;;
23270;SDS011;11804;51.118;17.058;2023-02-16T06:35:46;108.77;;;49.77;;
23270;SDS011;11804;51.118;17.058;2023-02-16T06:38:14;112.30;;;50.47;;
23270;SDS011;11804;51.118;17.058;2023-02-16T06:40:42;111.37;;;51.73;;
23270;SDS011;11804;51.118;17.058;2023-02-16T06:43:09;111.80;;;51.47;;
23270;SDS011;11804;51.118;17.058;2023-02-16T06:45:37;107.27;;;51.27;;
23270;SDS011;11804;51.118;17.058;2023-02-16T06:48:05;120.60;;;55.33;;
23270;SDS011;11804;51.118;17.058;2023-02-16T06:50:32;114.87;;;51.60;;
23270;SDS011;11804;51.118;17.058;2023-02-16T06:53:00;128.60;;;55.40;;
23270;SDS011;11804;51.118;17.058;2023-02-16T06:55:27;115.57;;;53.30;;
23270;SDS011;11804;51.118;17.058;2023-02-16T06:57:58;119.23;;;54.17;;
23270;SDS011;11804;51.118;17.058;2023-02-16T07:00:26;119.37;;;54.73;;
23270;SDS011;11804;51.118;17.058;2023-02-16T07:02:54;118.23;;;53.17;;
23270;SDS011;11804;51.118;17.058;2023-02-16T07:05:23;117.93;;;50.20;;
23270;SDS011;11804;51.118;17.058;2023-02-16T07:07:51;112.03;;;52.00;;
23270;SDS011;11804;51.118;17.058;2023-02-16T07:10:19;108.23;;;49.77;;
23270;SDS011;11804;51.118;17.058;2023-02-16T07:12:47;117.20;;;51.40;;
23270;SDS011;11804;51.118;17.058;2023-02-16T07:15:14;128.93;;;52.90;;
23270;SDS011;11804;51.118;17.058;2023-02-16T07:17:42;114.73;;;51.40;;
23270;SDS011;11804;51.118;17.058;2023-02-16T07:20:10;122.30;;;53.20;;
23270;SDS011;11804;51.118;17.058;2023-02-16T07:22:38;111.77;;;50.97;;
23270;SDS011;11804;51.118;17.058;2023-02-16T07:25:06;103.43;;;50.37;;
23270;SDS011;11804;51.118;17.058;2023-02-16T07:27:34;109.63;;;51.20;;
23270;SDS011;11804;51.118;17.058;2023-02-16T07:30:03;109.37;;;52.33;;
23270;SDS011;11804;51.118;17.058;2023-02-16T07:32:31;112.97;;;52.07;;
23270;SDS011;11804;51.118;17.058;2023-02-16T07:34:58;105.27;;;50.50;;
23270;SDS011;11804;51.118;17.058;2023-02-16T07:37:26;111.50;;;52.50;;
23270;SDS011;11804;51.118;17.058;2023-02-16T07:39:54;114.07;;;52.87;;
23270;SDS011;11804;51.118;17.058;2023-02-16T07:42:21;99.23;;;49.47;;
23270;SDS011;11804;51.118;17.058;2023-02-16T07:44:49;105.50;;;51.67;;
23270;SDS011;11804;51.118;17.058;2023-02-16T07:47:16;107.73;;;52.90;;
23270;SDS011;11804;51.118;17.058;2023-02-16T07:49:44;114.30;;;53.60;;
23270;SDS011;11804;51.118;17.058;2023-02-16T07:52:12;107.37;;;53.53;;
23270;SDS011;11804;51.118;17.058;2023-02-16T07:54:39;111.57;;;54.20;;
23270;SDS011;11804;51.118;17.058;2023-02-16T07:57:08;107.20;;;52.20;;
23270;SDS011;11804;51.118;17.058;2023-02-16T07:59:35;118.77;;;56.03;;
23270;SDS011;11804;51.118;17.058;2023-02-16T08:02:03;106.20;;;53.93;;
23270;SDS011;11804;51.118;17.058;2023-02-16T08:04:31;107.67;;;54.67;;
23270;SDS011;11804;51.118;17.058;2023-02-16T08:07:00;112.27;;;56.17;;
23270;SDS011;11804;51.118;17.058;2023-02-16T08:09:28;113.50;;;54.60;;
23270;SDS011;11804;51.118;17.058;2023-02-16T08:11:55;109.17;;;52.80;;
23270;SDS011;11804;51.118;17.058;2023-02-16T08:14:23;108.67;;;50.57;;
23270;SDS011;11804;51.118;17.058;2023-02-16T08:16:51;76.73;;;40.13;;
23270;SDS011;11804;51.118;17.058;2023-02-16T08:19:18;63.23;;;33.70;;
23270;SDS011;11804;51.118;17.058;2023-02-16T08:21:46;53.57;;;28.43;;
23270;SDS011;11804;51.118;17.058;2023-02-16T08:24:14;46.73;;;25.87;;
23270;SDS011;11804;51.118;17.058;2023-02-16T08:26:41;50.07;;;25.07;;
23270;SDS011;11804;51.118;17.058;2023-02-16T08:29:09;47.67;;;25.13;;
23270;SDS011;11804;51.118;17.058;2023-02-16T08:31:40;47.30;;;24.53;;
23270;SDS011;11804;51.118;17.058;2023-02-16T08:34:08;44.87;;;25.10;;
23270;SDS011;11804;51.118;17.058;2023-02-16T08:36:36;43.93;;;24.90;;
23270;SDS011;11804;51.118;17.058;2023-02-16T08:39:10;48.73;;;25.63;;
23270;SDS011;11804;51.118;17.058;2023-02-16T08:41:44;44.53;;;25.50;;
23270;SDS011;11804;51.118;17.058;2023-02-16T08:44:14;46.97;;;25.07;;
23270;SDS011;11804;51.118;17.058;2023-02-16T08:46:43;44.27;;;25.30;;
23270;SDS011;11804;51.118;17.058;2023-02-16T08:49:13;43.43;;;25.80;;
23270;SDS011;11804;51.118;17.058;2023-02-16T08:51:44;46.83;;;26.40;;
23270;SDS011;11804;51.118;17.058;2023-02-16T08:54:15;49.07;;;27.40;;
23270;SDS011;11804;51.118;17.058;2023-02-16T08:56:44;43.10;;;26.67;;
23270;SDS011;11804;51.118;17.058;2023-02-16T08:59:14;43.33;;;25.27;;
23270;SDS011;11804;51.118;17.058;2023-02-16T09:01:43;44.73;;;25.53;;
23270;SDS011;11804;51.118;17.058;2023-02-16T09:04:11;43.53;;;25.73;;
23270;SDS011;11804;51.118;17.058;2023-02-16T09:06:40;42.70;;;26.03;;
23270;SDS011;11804;51.118;17.058;2023-02-16T09:09:09;43.93;;;26.17;;
23270;SDS011;11804;51.118;17.058;2023-02-16T09:11:39;43.37;;;24.90;;
23270;SDS011;11804;51.118;17.058;2023-02-16T09:14:07;42.87;;;25.83;;
23270;SDS011;11804;51.118;17.058;2023-02-16T09:16:35;44.37;;;25.67;;
23270;SDS011;11804;51.118;17.058;2023-02-16T09:19:05;38.27;;;24.37;;
23270;SDS011;11804;51.118;17.058;2023-02-16T09:21:33;38.57;;;24.03;;
23270;SDS011;11804;51.118;17.058;2023-02-16T09:24:02;45.37;;;26.80;;
23270;SDS011;11804;51.118;17.058;2023-02-16T09:26:32;43.40;;;25.47;;
23270;SDS011;11804;51.118;17.058;2023-02-16T09:29:03;39.13;;;25.10;;
23270;SDS011;11804;51.118;17.058;2023-02-16T09:31:32;44.87;;;26.53;;
23270;SDS011;11804;51.118;17.058;2023-02-16T09:34:03;36.33;;;23.80;;
23270;SDS011;11804;51.118;17.058;2023-02-16T09:36:36;35.23;;;23.70;;
23270;SDS011;11804;51.118;17.058;2023-02-16T09:39:04;37.57;;;24.10;;
23270;SDS011;11804;51.118;17.058;2023-02-16T09:44:44;36.77;;;24.00;;
23270;SDS011;11804;51.118;17.058;2023-02-16T09:47:18;41.83;;;24.30;;
23270;SDS011;11804;51.118;17.058;2023-02-16T09:49:42;35.83;;;23.57;;
23270;SDS011;11804;51.118;17.058;2023-02-16T09:52:16;40.67;;;22.63;;
23270;SDS011;11804;51.118;17.058;2023-02-16T09:54:58;41.43;;;24.23;;
23270;SDS011;11804;51.118;17.058;2023-02-16T09:57:42;40.43;;;23.33;;
23270;SDS011;11804;51.118;17.058;2023-02-16T10:00:25;42.27;;;23.07;;
23270;SDS011;11804;51.118;17.058;2023-02-16T10:08:56;35.37;;;22.83;;
23270;SDS011;11804;51.118;17.058;2023-02-16T10:11:26;39.33;;;23.03;;
23270;SDS011;11804;51.118;17.058;2023-02-16T10:14:15;36.87;;;23.60;;
23270;SDS011;11804;51.118;17.058;2023-02-16T10:16:57;42.30;;;22.33;;
23270;SDS011;11804;51.118;17.058;2023-02-16T10:19:30;39.93;;;22.43;;
23270;SDS011;11804;51.118;17.058;2023-02-16T10:22:12;36.20;;;23.00;;
23270;SDS011;11804;51.118;17.058;2023-02-16T10:25:07;38.77;;;22.80;;
23270;SDS011;11804;51.118;17.058;2023-02-16T10:27:16;43.40;;;23.63;;
23270;SDS011;11804;51.118;17.058;2023-02-16T10:29:47;39.33;;;22.73;;
23270;SDS011;11804;51.118;17.058;2023-02-16T10:35:02;37.83;;;22.40;;
23270;SDS011;11804;51.118;17.058;2023-02-16T10:40:23;36.97;;;22.63;;
23270;SDS011;11804;51.118;17.058;2023-02-16T10:45:52;40.57;;;23.33;;
23270;SDS011;11804;51.118;17.058;2023-02-16T10:48:23;42.73;;;22.03;;
23270;SDS011;11804;51.118;17.058;2023-02-16T10:51:08;40.13;;;22.50;;
23270;SDS011;11804;51.118;17.058;2023-02-16T11:04:32;36.07;;;21.40;;
23270;SDS011;11804;51.118;17.058;2023-02-16T11:07:05;34.63;;;20.57;;
23270;SDS011;11804;51.118;17.058;2023-02-16T11:09:39;33.87;;;20.23;;
23270;SDS011;11804;51.118;17.058;2023-02-16T11:14:53;36.80;;;19.50;;
23270;SDS011;11804;51.118;17.058;2023-02-16T11:17:22;40.23;;;21.27;;
23270;SDS011;11804;51.118;17.058;2023-02-16T11:19:57;36.93;;;21.23;;
23270;SDS011;11804;51.118;17.058;2023-02-16T11:22:30;38.33;;;20.33;;
23270;SDS011;11804;51.118;17.058;2023-02-16T11:25:16;32.17;;;20.23;;
23270;SDS011;11804;51.118;17.058;2023-02-16T11:27:53;35.13;;;20.30;;
23270;SDS011;11804;51.118;17.058;2023-02-16T11:30:21;34.20;;;20.23;;
23270;SDS011;11804;51.118;17.058;2023-02-16T11:32:49;36.40;;;21.03;;
23270;SDS011;11804;51.118;17.058;2023-02-16T11:35:17;33.20;;;19.33;;
23270;SDS011;11804;51.118;17.058;2023-02-16T11:37:45;38.60;;;21.50;;
23270;SDS011;11804;51.118;17.058;2023-02-16T11:40:19;42.97;;;20.90;;
23270;SDS011;11804;51.118;17.058;2023-02-16T11:42:54;36.63;;;21.17;;
23270;SDS011;11804;51.118;17.058;2023-02-16T11:45:25;34.53;;;20.57;;
23270;SDS011;11804;51.118;17.058;2023-02-16T11:48:03;43.93;;;22.10;;
23270;SDS011;11804;51.118;17.058;2023-02-16T11:50:29;38.00;;;21.47;;
23270;SDS011;11804;51.118;17.058;2023-02-16T11:55:44;38.63;;;22.03;;
23270;SDS011;11804;51.118;17.058;2023-02-16T11:58:18;36.93;;;21.73;;
23270;SDS011;11804;51.118;17.058;2023-02-16T12:08:36;35.63;;;21.10;;
23270;SDS011;11804;51.118;17.058;2023-02-16T12:11:20;38.90;;;22.23;;
23270;SDS011;11804;51.118;17.058;2023-02-16T12:16:34;38.70;;;21.90;;
23270;SDS011;11804;51.118;17.058;2023-02-16T12:19:17;39.20;;;22.10;;
23270;SDS011;11804;51.118;17.058;2023-02-16T12:21:57;38.77;;;22.07;;
23270;SDS011;11804;51.118;17.058;2023-02-16T12:24:35;41.57;;;22.90;;
23270;SDS011;11804;51.118;17.058;2023-02-16T12:29:57;43.50;;;22.67;;
23270;SDS011;11804;51.118;17.058;2023-02-16T12:45:59;37.60;;;22.93;;
23270;SDS011;11804;51.118;17.058;2023-02-16T12:48:41;44.47;;;22.57;;
23270;SDS011;11804;51.118;17.058;2023-02-16T12:51:18;41.17;;;23.37;;
23270;SDS011;11804;51.118;17.058;2023-02-16T12:53:49;41.03;;;22.27;;
23270;SDS011;11804;51.118;17.058;2023-02-16T12:56:29;42.00;;;22.47;;
23270;SDS011;11804;51.118;17.058;2023-02-16T12:59:15;39.07;;;22.63;;
23270;SDS011;11804;51.118;17.058;2023-02-16T13:01:43;44.37;;;23.30;;
23270;SDS011;11804;51.118;17.058;2023-02-16T13:07:20;42.33;;;24.10;;
23270;SDS011;11804;51.118;17.058;2023-02-16T13:10:06;41.63;;;24.40;;
23270;SDS011;11804;51.118;17.058;2023-02-16T13:12:49;45.17;;;25.27;;
23270;SDS011;11804;51.118;17.058;2023-02-16T13:15:24;45.33;;;24.80;;
23270;SDS011;11804;51.118;17.058;2023-02-16T13:17:56;39.87;;;24.27;;
23270;SDS011;11804;51.118;17.058;2023-02-16T13:20:31;47.03;;;25.43;;
23270;SDS011;11804;51.118;17.058;2023-02-16T13:28:54;49.63;;;25.57;;
23270;SDS011;11804;51.118;17.058;2023-02-16T13:31:44;46.80;;;23.97;;
23270;SDS011;11804;51.118;17.058;2023-02-16T13:34:46;44.70;;;24.17;;
23270;SDS011;11804;51.118;17.058;2023-02-16T13:37:24;44.00;;;24.57;;
23270;SDS011;11804;51.118;17.058;2023-02-16T13:40:13;44.77;;;24.30;;
23270;SDS011;11804;51.118;17.058;2023-02-16T13:42:47;49.57;;;23.77;;
23270;SDS011;11804;51.118;17.058;2023-02-16T13:45:17;55.93;;;24.20;;
23270;SDS011;11804;51.118;17.058;2023-02-16T13:47:53;45.23;;;23.90;;
23270;SDS011;11804;51.118;17.058;2023-02-16T13:50:24;45.30;;;24.80;;
23270;SDS011;11804;51.118;17.058;2023-02-16T13:52:55;47.03;;;23.30;;
23270;SDS011;11804;51.118;17.058;2023-02-16T13:55:35;50.77;;;24.73;;
23270;SDS011;11804;51.118;17.058;2023-02-16T14:00:47;50.53;;;24.37;;
23270;SDS011;11804;51.118;17.058;2023-02-16T14:05:53;42.77;;;23.97;;
23270;SDS011;11804;51.118;17.058;2023-02-16T14:08:26;43.37;;;24.20;;
23270;SDS011;11804;51.118;17.058;2023-02-16T14:10:57;43.30;;;24.60;;
23270;SDS011;11804;51.118;17.058;2023-02-16T14:13:29;46.60;;;24.60;;
23270;SDS011;11804;51.118;17.058;2023-02-16T14:19:00;56.63;;;26.23;;
23270;SDS011;11804;51.118;17.058;2023-02-16T14:24:05;41.27;;;24.03;;
23270;SDS011;11804;51.118;17.058;2023-02-16T14:27:11;49.73;;;25.77;;
23270;SDS011;11804;51.118;17.058;2023-02-16T14:29:21;51.70;;;28.10;;
23270;SDS011;11804;51.118;17.058;2023-02-16T14:31:58;65.23;;;34.10;;
23270;SDS011;11804;51.118;17.058;2023-02-16T14:34:28;68.70;;;34.40;;
23270;SDS011;11804;51.118;17.058;2023-02-16T14:39:47;66.43;;;33.07;;
23270;SDS011;11804;51.118;17.058;2023-02-16T14:42:16;71.17;;;34.60;;
23270;SDS011;11804;51.118;17.058;2023-02-16T14:44:54;48.87;;;27.73;;
23270;SDS011;11804;51.118;17.058;2023-02-16T14:56:19;49.27;;;27.43;;
23270;SDS011;11804;51.118;17.058;2023-02-16T15:01:27;49.53;;;27.33;;
23270;SDS011;11804;51.118;17.058;2023-02-16T15:03:57;57.70;;;31.03;;
23270;SDS011;11804;51.118;17.058;2023-02-16T15:09:17;52.57;;;26.40;;
23270;SDS011;11804;51.118;17.058;2023-02-16T15:11:54;52.87;;;27.70;;
23270;SDS011;11804;51.118;17.058;2023-02-16T15:14:24;50.50;;;28.00;;
23270;SDS011;11804;51.118;17.058;2023-02-16T15:16:53;49.57;;;27.70;;
23270;SDS011;11804;51.118;17.058;2023-02-16T15:19:25;48.70;;;25.23;;
23270;SDS011;11804;51.118;17.058;2023-02-16T15:22:07;44.47;;;24.70;;
23270;SDS011;11804;51.118;17.058;2023-02-16T15:24:59;47.43;;;25.60;;
23270;SDS011;11804;51.118;17.058;2023-02-16T15:27:32;48.37;;;26.17;;
23270;SDS011;11804;51.118;17.058;2023-02-16T15:32:51;45.27;;;24.87;;
23270;SDS011;11804;51.118;17.058;2023-02-16T15:35:28;39.90;;;23.60;;
23270;SDS011;11804;51.118;17.058;2023-02-16T15:38:01;43.33;;;24.07;;
23270;SDS011;11804;51.118;17.058;2023-02-16T15:40:40;47.60;;;25.50;;
23270;SDS011;11804;51.118;17.058;2023-02-16T15:43:17;47.97;;;24.07;;
23270;SDS011;11804;51.118;17.058;2023-02-16T15:45:57;49.53;;;23.43;;
23270;SDS011;11804;51.118;17.058;2023-02-16T15:48:33;41.67;;;23.77;;
23270;SDS011;11804;51.118;17.058;2023-02-16T15:51:25;41.90;;;23.37;;
23270;SDS011;11804;51.118;17.058;2023-02-16T15:53:52;46.63;;;23.40;;
23270;SDS011;11804;51.118;17.058;2023-02-16T15:56:38;46.23;;;23.87;;
23270;SDS011;11804;51.118;17.058;2023-02-16T16:02:11;49.73;;;24.43;;
23270;SDS011;11804;51.118;17.058;2023-02-16T16:04:42;50.13;;;25.30;;
23270;SDS011;11804;51.118;17.058;2023-02-16T16:07:12;50.47;;;24.83;;
23270;SDS011;11804;51.118;17.058;2023-02-16T16:09:42;47.63;;;25.27;;
23270;SDS011;11804;51.118;17.058;2023-02-16T16:12:12;45.47;;;25.10;;
23270;SDS011;11804;51.118;17.058;2023-02-16T16:14:44;52.10;;;26.20;;
23270;SDS011;11804;51.118;17.058;2023-02-16T16:17:20;44.43;;;24.13;;
23270;SDS011;11804;51.118;17.058;2023-02-16T16:19:52;44.07;;;24.50;;
23270;SDS011;11804;51.118;17.058;2023-02-16T16:22:39;51.30;;;25.77;;
23270;SDS011;11804;51.118;17.058;2023-02-16T16:25:26;48.80;;;26.33;;
23270;SDS011;11804;51.118;17.058;2023-02-16T16:27:48;45.77;;;24.27;;
23270;SDS011;11804;51.118;17.058;2023-02-16T16:33:03;45.40;;;24.73;;
23270;SDS011;11804;51.118;17.058;2023-02-16T16:35:36;51.43;;;25.27;;
23270;SDS011;11804;51.118;17.058;2023-02-16T16:38:06;47.63;;;26.70;;
23270;SDS011;11804;51.118;17.058;2023-02-16T16:40:48;48.40;;;26.27;;
23270;SDS011;11804;51.118;17.058;2023-02-16T16:43:25;48.07;;;26.13;;
23270;SDS011;11804;51.118;17.058;2023-02-16T16:48:47;49.23;;;26.97;;
23270;SDS011;11804;51.118;17.058;2023-02-16T16:53:57;44.83;;;25.73;;
23270;SDS011;11804;51.118;17.058;2023-02-16T16:56:27;52.53;;;28.03;;
23270;SDS011;11804;51.118;17.058;2023-02-16T16:58:55;49.53;;;28.57;;
23270;SDS011;11804;51.118;17.058;2023-02-16T17:01:25;54.07;;;28.70;;